createdAt,value
2019-04-05T00:01:30.023Z,44.30
2019-04-05T00:04:02.118Z,44.33
2019-04-05T00:06:34.109Z,44.43
2019-04-05T00:09:08.191Z,44.46
2019-04-05T00:11:40.542Z,44.38
2019-04-05T00:14:12.554Z,44.36
2019-04-05T00:16:44.586Z,44.16
2019-04-05T00:19:16.659Z,44.32
2019-04-05T00:21:48.616Z,44.42
2019-04-05T00:24:20.922Z,44.28
2019-04-05T00:26:52.988Z,44.37
2019-04-05T00:29:25.059Z,44.32
2019-04-05T00:31:57.007Z,44.24
2019-04-05T00:34:29.083Z,44.31
2019-04-05T00:37:01.060Z,44.29
2019-04-05T00:39:33.090Z,44.29
2019-04-05T00:42:05.204Z,44.26
2019-04-05T00:44:37.160Z,44.28
2019-04-05T00:47:09.247Z,44.50
2019-04-05T00:49:41.326Z,44.56
2019-04-05T00:52:13.282Z,44.68
2019-04-05T00:54:45.434Z,44.81
2019-04-05T00:57:17.818Z,44.82
2019-04-05T00:59:50.438Z,44.87
2019-04-05T01:02:22.757Z,45.02
2019-04-05T01:04:54.857Z,44.94
2019-04-05T01:07:26.998Z,44.91
2019-04-05T01:09:59.205Z,44.97
2019-04-05T01:12:32.110Z,45.01
2019-04-05T01:15:04.643Z,45.06
2019-04-05T01:17:36.636Z,45.22
2019-04-05T01:20:09.092Z,45.19
2019-04-05T01:22:42.746Z,45.23
2019-04-05T01:25:15.090Z,45.25
2019-04-05T01:27:48.571Z,45.52
2019-04-05T01:30:21.220Z,45.54
2019-04-05T01:32:53.302Z,45.68
2019-04-05T01:35:25.308Z,45.78
2019-04-05T01:37:57.853Z,45.84
2019-04-05T01:40:33.219Z,45.90
2019-04-05T01:43:05.489Z,45.84
2019-04-05T01:45:37.460Z,45.68
2019-04-05T01:48:09.510Z,45.89
2019-04-05T01:50:41.510Z,45.90
2019-04-05T01:53:13.812Z,45.76
2019-04-05T01:55:45.894Z,45.95
2019-04-05T01:58:17.918Z,45.98
2019-04-05T02:00:49.879Z,46.15
2019-04-05T02:03:23.906Z,46.33
2019-04-05T02:05:55.884Z,46.39
2019-04-05T02:08:28.361Z,46.54
2019-04-05T02:11:00.634Z,46.85
2019-04-05T02:13:32.608Z,46.85
2019-04-05T02:16:06.702Z,47.00
2019-04-05T02:18:38.387Z,47.03
2019-04-05T02:21:10.418Z,47.22
2019-04-05T02:23:42.512Z,47.55
2019-04-05T02:26:14.599Z,47.74
2019-04-05T02:28:46.734Z,48.20
2019-04-05T02:31:18.959Z,48.44
2019-04-05T02:33:51.038Z,48.52
2019-04-05T02:36:23.107Z,48.53
2019-04-05T02:38:55.202Z,48.45
2019-04-05T02:41:29.305Z,48.94
2019-04-05T02:44:02.349Z,48.92
2019-04-05T02:46:34.308Z,49.02
2019-04-05T02:49:07.011Z,48.95
2019-04-05T02:51:41.383Z,48.86
2019-04-05T02:54:14.882Z,48.98
2019-04-05T02:56:47.604Z,48.86
2019-04-05T02:59:20.728Z,48.85
2019-04-05T03:01:52.960Z,49.08
2019-04-05T03:04:25.501Z,48.96
2019-04-05T03:06:57.765Z,49.08
2019-04-05T03:09:30.236Z,49.14
2019-04-05T03:12:03.579Z,49.19
2019-04-05T03:14:36.322Z,49.34
2019-04-05T03:17:10.313Z,49.54
2019-04-05T03:19:44.807Z,49.75
2019-04-05T03:22:17.639Z,49.79
2019-04-05T03:24:51.293Z,49.94
2019-04-05T03:27:29.524Z,49.90
2019-04-05T03:30:03.453Z,49.87
2019-04-05T03:32:35.500Z,49.99
2019-04-05T03:35:08.133Z,50.02
2019-04-05T03:37:40.703Z,50.16
2019-04-05T03:40:12.874Z,50.22
2019-04-05T03:42:45.322Z,50.28
2019-04-05T03:45:17.290Z,50.54
2019-04-05T03:47:49.672Z,51.00
2019-04-05T03:50:21.713Z,51.65
2019-04-05T03:52:53.752Z,52.09
2019-04-05T03:55:25.741Z,52.15
2019-04-05T03:57:57.714Z,52.16
2019-04-05T04:00:30.190Z,52.17
2019-04-05T04:03:02.169Z,52.06
2019-04-05T04:05:34.283Z,52.00
2019-04-05T04:08:06.912Z,52.00
2019-04-05T04:10:38.923Z,51.83
2019-04-05T04:13:11.109Z,51.71
2019-04-05T04:15:43.165Z,51.53
2019-04-05T04:18:15.182Z,51.44
2019-04-05T04:20:51.795Z,51.35
2019-04-05T04:23:27.814Z,51.24
2019-04-05T04:26:01.159Z,51.23
2019-04-05T04:28:33.928Z,51.05
2019-04-05T04:31:05.868Z,51.04
2019-04-05T04:33:38.126Z,50.97
2019-04-05T04:36:13.045Z,50.98
2019-04-05T04:38:44.718Z,51.03
2019-04-05T04:41:17.088Z,50.94
2019-04-05T04:43:49.833Z,50.73
2019-04-05T04:46:22.331Z,50.85
2019-04-05T04:48:55.485Z,50.84
2019-04-05T04:51:28.015Z,50.73
2019-04-05T04:54:00.733Z,50.64
2019-04-05T04:56:32.797Z,50.66
2019-04-05T04:59:04.834Z,50.65
2019-04-05T05:01:36.910Z,50.54
2019-04-05T05:04:09.098Z,50.22
2019-04-05T05:06:41.554Z,49.91
2019-04-05T05:09:13.747Z,49.74
2019-04-05T05:11:45.710Z,49.49
2019-04-05T05:14:17.934Z,49.05
2019-04-05T05:16:50.312Z,48.57
2019-04-05T05:19:22.348Z,48.12
2019-04-05T05:21:54.624Z,48.05
2019-04-05T05:24:26.818Z,47.64
2019-04-05T05:26:59.466Z,47.07
2019-04-05T05:29:31.708Z,46.38
2019-04-05T05:32:03.902Z,46.07
2019-04-05T05:34:36.144Z,45.57
2019-04-05T05:37:08.273Z,45.43
2019-04-05T05:39:40.608Z,45.13
2019-04-05T05:42:12.686Z,45.04
2019-04-05T05:44:45.814Z,44.90
2019-04-05T05:47:18.121Z,44.62
2019-04-05T05:49:50.094Z,44.65
2019-04-05T05:52:22.780Z,44.72
2019-04-05T05:54:54.742Z,44.64
2019-04-05T05:57:26.708Z,44.24
2019-04-05T06:00:00.493Z,43.76
2019-04-05T06:02:32.426Z,43.23
2019-04-05T06:05:04.586Z,42.75
2019-04-05T06:07:36.694Z,41.87
2019-04-05T06:10:08.756Z,40.45
2019-04-05T06:12:40.855Z,38.21
2019-04-05T06:15:13.136Z,33.62
2019-04-05T06:17:45.142Z,31.97
2019-04-05T06:20:18.448Z,29.59
2019-04-05T06:22:50.908Z,31.51
2019-04-05T06:25:24.162Z,33.03
2019-04-05T06:27:57.241Z,34.15
2019-04-05T06:30:29.940Z,34.94
2019-04-05T06:33:02.041Z,35.45
2019-04-05T06:35:33.998Z,35.20
2019-04-05T06:38:06.146Z,34.23
2019-04-05T06:40:41.003Z,34.85
2019-04-05T06:43:12.035Z,35.45
2019-04-05T06:45:44.082Z,35.66
2019-04-05T06:48:19.457Z,33.32
2019-04-05T06:50:50.205Z,33.38
2019-04-05T06:53:22.201Z,32.08
2019-04-05T06:55:54.229Z,26.59
2019-04-05T06:58:28.927Z,22.99
2019-04-05T07:01:00.294Z,20.84
2019-04-05T07:03:32.315Z,20.70
2019-04-05T07:06:04.284Z,23.05
2019-04-05T07:08:36.286Z,24.86
2019-04-05T07:11:08.364Z,25.83
2019-04-05T07:13:40.436Z,26.45
2019-04-05T07:16:13.902Z,26.48
2019-04-05T07:18:45.986Z,21.19
2019-04-05T07:21:18.126Z,19.22
2019-04-05T07:23:50.558Z,17.47
2019-04-05T07:26:22.546Z,17.71
2019-04-05T07:28:54.548Z,16.08
2019-04-05T07:31:26.611Z,14.01
2019-04-05T07:33:58.591Z,13.75
2019-04-05T07:36:30.986Z,12.17
2019-04-05T07:39:03.614Z,11.04
2019-04-05T07:41:35.782Z,10.08
2019-04-05T07:44:07.863Z,11.14
2019-04-05T07:46:40.004Z,10.81
2019-04-05T07:49:12.087Z,13.58
2019-04-05T07:51:44.222Z,15.08
2019-04-05T07:54:16.299Z,14.38
2019-04-05T07:56:48.252Z,13.92
2019-04-05T07:59:21.118Z,14.37
2019-04-05T08:01:53.244Z,13.11
2019-04-05T08:04:25.452Z,12.79
2019-04-05T08:07:01.907Z,10.75
2019-04-05T08:09:36.483Z,8.77
2019-04-05T08:12:10.063Z,7.35
2019-04-05T08:14:42.336Z,7.19
2019-04-05T08:17:14.312Z,7.02
2019-04-05T08:19:46.277Z,6.57
2019-04-05T08:22:18.290Z,6.51
2019-04-05T08:24:50.264Z,6.10
2019-04-05T08:27:22.421Z,5.65
2019-04-05T08:29:54.399Z,4.28
2019-04-05T08:32:26.426Z,3.88
2019-04-05T08:34:58.422Z,4.13
2019-04-05T08:37:30.802Z,3.92
2019-04-05T08:40:02.868Z,3.93
2019-04-05T08:42:34.852Z,4.42
2019-04-05T08:45:08.407Z,4.35
2019-04-05T08:47:40.482Z,3.59
2019-04-05T08:50:12.740Z,3.52
2019-04-05T08:52:44.698Z,3.69
2019-04-05T08:55:16.801Z,3.51
2019-04-05T08:57:50.048Z,2.59
2019-04-05T09:00:22.128Z,2.38
2019-04-05T09:02:54.236Z,1.85
2019-04-05T09:05:26.258Z,2.06
2019-04-05T09:07:58.304Z,2.31
2019-04-05T09:10:30.516Z,1.75
2019-04-05T09:13:02.526Z,1.85
2019-04-05T09:15:34.526Z,4.04
2019-04-05T09:18:06.569Z,4.02
2019-04-05T09:20:38.580Z,3.39
2019-04-05T09:23:10.620Z,3.81
2019-04-05T09:25:42.680Z,3.80
2019-04-05T09:28:14.635Z,3.49
2019-04-05T09:30:46.620Z,3.40
2019-04-05T09:33:18.728Z,3.92
2019-04-05T09:35:52.200Z,4.70
2019-04-05T09:38:24.142Z,4.51
2019-04-05T09:40:56.146Z,7.66
2019-04-05T09:43:28.150Z,9.85
2019-04-05T09:46:00.097Z,7.57
2019-04-05T09:48:32.093Z,5.81
2019-04-05T09:51:07.033Z,3.94
2019-04-05T09:53:37.814Z,5.15
2019-04-05T09:56:10.176Z,6.86
2019-04-05T09:58:42.216Z,7.97
2019-04-05T10:01:14.265Z,10.31
2019-04-05T10:03:46.287Z,11.81
2019-04-05T10:06:18.234Z,12.80
2019-04-05T10:08:50.542Z,12.57
2019-04-05T10:11:22.506Z,13.06
2019-04-05T10:13:54.542Z,12.20
2019-04-05T10:16:26.562Z,7.49
2019-04-05T10:18:58.620Z,5.45
2019-04-05T10:21:30.838Z,4.77
2019-04-05T10:24:02.908Z,3.56
2019-04-05T10:26:35.054Z,2.25
2019-04-05T10:29:07.216Z,2.23
2019-04-05T10:31:39.160Z,2.27
2019-04-05T10:34:11.161Z,2.26
2019-04-05T10:36:43.230Z,2.21
2019-04-05T10:39:15.368Z,1.83
2019-04-05T10:41:47.340Z,1.42
2019-04-05T10:44:20.148Z,1.09
2019-04-05T10:46:52.084Z,0.70
2019-04-05T10:49:24.084Z,0.99
2019-04-05T10:51:56.047Z,0.84
2019-04-05T10:54:27.981Z,1.05
2019-04-05T10:57:00.371Z,1.02
2019-04-05T10:59:32.404Z,2.42
2019-04-05T11:02:04.388Z,5.33
2019-04-05T11:04:36.381Z,7.58
2019-04-05T11:07:08.310Z,6.31
2019-04-05T11:09:40.262Z,4.61
2019-04-05T11:12:12.234Z,4.16
2019-04-05T11:14:44.242Z,3.62
2019-04-05T11:17:16.230Z,2.87
2019-04-05T11:19:48.226Z,3.03
2019-04-05T11:22:21.145Z,4.93
2019-04-05T11:24:53.386Z,7.07
2019-04-05T11:27:25.360Z,9.46
2019-04-05T11:29:57.994Z,11.43
2019-04-05T11:32:30.190Z,12.91
2019-04-05T11:35:02.447Z,13.97
2019-04-05T11:37:35.063Z,13.74
2019-04-05T11:40:07.566Z,11.75
2019-04-05T11:42:40.042Z,9.51
2019-04-05T11:45:12.547Z,9.14
2019-04-05T11:47:45.435Z,10.25
2019-04-05T11:50:17.928Z,11.26
2019-04-05T11:52:50.238Z,12.47
2019-04-05T11:55:22.302Z,13.57
2019-04-05T11:57:54.872Z,14.43
2019-04-05T12:00:44.834Z,14.90
2019-04-05T12:03:16.902Z,15.34
2019-04-05T12:05:48.928Z,15.48
2019-04-05T12:08:21.196Z,16.07
2019-04-05T12:10:53.310Z,16.66
2019-04-05T12:13:25.367Z,16.97
2019-04-05T12:15:58.325Z,17.68
2019-04-05T12:18:32.550Z,17.74
2019-04-05T12:21:06.015Z,17.72
2019-04-05T12:23:38.102Z,17.44
2019-04-05T12:26:10.263Z,16.89
2019-04-05T12:28:42.288Z,16.65
2019-04-05T12:31:15.170Z,16.43
2019-04-05T12:33:51.290Z,16.44
2019-04-05T12:36:23.927Z,16.59
2019-04-05T12:38:55.948Z,16.60
2019-04-05T12:41:28.063Z,16.96
2019-04-05T12:44:00.156Z,17.42
2019-04-05T12:46:32.454Z,17.72
2019-04-05T12:49:04.613Z,18.12
2019-04-05T12:51:36.707Z,17.57
2019-04-05T12:54:08.940Z,17.98
2019-04-05T12:56:42.344Z,18.37
2019-04-05T12:59:14.443Z,18.19
2019-04-05T13:01:46.618Z,18.24
2019-04-05T13:04:20.603Z,17.85
2019-04-05T13:06:52.815Z,17.40
2019-04-05T13:09:25.692Z,17.60
2019-04-05T13:11:57.744Z,18.07
2019-04-05T13:14:29.799Z,18.35
2019-04-05T13:17:02.682Z,18.69
2019-04-05T13:19:34.860Z,19.10
2019-04-05T13:22:06.960Z,18.95
2019-04-05T13:24:40.285Z,18.77
2019-04-05T13:27:12.542Z,18.44
2019-04-05T13:29:44.755Z,18.60
2019-04-05T13:32:17.222Z,19.04
2019-04-05T13:34:50.552Z,19.37
2019-04-05T13:37:22.726Z,19.47
2019-04-05T13:39:54.830Z,19.74
2019-04-05T13:42:26.961Z,19.96
2019-04-05T13:44:58.953Z,20.18
2019-04-05T13:47:32.988Z,20.23
2019-04-05T13:50:05.117Z,20.25
2019-04-05T13:52:37.210Z,20.17
2019-04-05T13:55:11.328Z,20.00
2019-04-05T13:57:43.464Z,19.80
2019-04-05T14:00:18.274Z,19.53
2019-04-05T14:02:56.474Z,19.47
2019-04-05T14:05:30.016Z,19.58
2019-04-05T14:08:10.545Z,19.49
2019-04-05T14:10:35.682Z,19.24
2019-04-05T14:13:10.014Z,19.30
2019-04-05T14:15:42.394Z,19.39
2019-04-05T14:18:16.095Z,19.50
2019-04-05T14:20:49.979Z,19.72
2019-04-05T14:23:23.903Z,19.73
2019-04-05T14:25:59.530Z,19.92
2019-04-05T14:28:30.283Z,19.93
2019-04-05T14:31:02.849Z,20.01
2019-04-05T14:33:35.082Z,19.98
2019-04-05T14:36:07.168Z,20.12
2019-04-05T14:38:39.101Z,21.93
2019-04-05T14:41:11.255Z,22.45
2019-04-05T14:43:45.014Z,21.80
2019-04-05T14:46:16.969Z,21.51
2019-04-05T14:48:49.063Z,22.08
2019-04-05T14:51:21.055Z,22.09
2019-04-05T14:53:53.078Z,21.82
2019-04-05T14:56:26.802Z,21.66
2019-04-05T14:58:58.699Z,22.21
2019-04-05T15:01:30.908Z,26.84
2019-04-05T15:04:03.015Z,27.03
2019-04-05T15:06:35.181Z,27.32
2019-04-05T15:09:08.867Z,27.02
2019-04-05T15:11:41.157Z,26.79
2019-04-05T15:14:13.251Z,27.35
2019-04-05T15:16:46.392Z,27.79
2019-04-05T15:19:18.460Z,28.82
2019-04-05T15:21:50.624Z,30.25
2019-04-05T15:24:22.632Z,33.75
2019-04-05T15:26:54.674Z,34.80
2019-04-05T15:29:26.692Z,36.26
2019-04-05T15:31:58.854Z,36.37
2019-04-05T15:34:31.220Z,36.27
2019-04-05T15:37:03.308Z,34.78
2019-04-05T15:39:35.402Z,34.60
2019-04-05T15:42:07.622Z,33.93
2019-04-05T15:44:39.568Z,33.29
2019-04-05T15:47:13.649Z,32.90
2019-04-05T15:49:50.137Z,32.96
2019-04-05T15:52:31.896Z,32.71
2019-04-05T15:55:03.762Z,32.86
2019-04-05T15:57:39.462Z,32.57
2019-04-05T16:00:16.043Z,32.66
2019-04-05T16:02:48.452Z,32.50
2019-04-05T16:05:21.206Z,32.75
2019-04-05T16:07:53.294Z,32.59
2019-04-05T16:10:25.334Z,32.75
2019-04-05T16:12:57.340Z,32.53
2019-04-05T16:15:29.439Z,32.56
2019-04-05T16:18:01.525Z,32.81
2019-04-05T16:20:33.576Z,32.61
2019-04-05T16:23:05.603Z,32.55
2019-04-05T16:25:38.398Z,32.41
2019-04-05T16:28:10.770Z,33.09
2019-04-05T16:30:43.275Z,33.03
2019-04-05T16:33:15.226Z,33.37
2019-04-05T16:35:47.348Z,33.73
2019-04-05T16:38:19.367Z,33.94
2019-04-05T16:40:51.453Z,34.97
2019-04-05T16:43:23.470Z,35.22
2019-04-05T16:45:55.640Z,35.43
2019-04-05T16:48:27.758Z,35.79
2019-04-05T16:51:00.408Z,36.03
2019-04-05T16:53:32.869Z,36.07
2019-04-05T16:56:05.036Z,36.45
2019-04-05T16:58:37.134Z,36.38
2019-04-05T17:01:09.184Z,36.25
2019-04-05T17:03:41.390Z,35.99
2019-04-05T17:06:13.433Z,36.04
2019-04-05T17:08:45.639Z,36.41
2019-04-05T17:11:17.817Z,35.96
2019-04-05T17:13:50.170Z,36.79
2019-04-05T17:16:22.210Z,37.27
2019-04-05T17:18:54.387Z,37.24
2019-04-05T17:21:26.479Z,37.58
2019-04-05T17:23:58.475Z,37.20
2019-04-05T17:26:30.823Z,37.98
2019-04-05T17:29:02.959Z,38.52
2019-04-05T17:31:35.079Z,38.77
2019-04-05T17:34:07.069Z,38.97
2019-04-05T17:36:39.136Z,39.09
2019-04-05T17:39:12.752Z,39.46
2019-04-05T17:41:44.926Z,39.96
2019-04-05T17:44:16.886Z,40.05
2019-04-05T17:46:48.898Z,40.25
2019-04-05T17:49:21.000Z,39.97
2019-04-05T17:51:53.328Z,40.07
2019-04-05T17:54:25.335Z,40.30
2019-04-05T17:56:57.920Z,40.24
2019-04-05T17:59:30.560Z,40.22
2019-04-05T18:02:03.127Z,40.15
2019-04-05T18:04:36.284Z,40.28
2019-04-05T18:07:08.332Z,40.22
2019-04-05T18:09:41.299Z,40.19
2019-04-05T18:12:13.501Z,40.52
2019-04-05T18:14:45.482Z,40.48
2019-04-05T18:17:17.509Z,41.02
2019-04-05T18:19:49.665Z,41.12
2019-04-05T18:22:21.795Z,41.54
2019-04-05T18:24:54.011Z,41.80
2019-04-05T18:27:26.136Z,41.71
2019-04-05T18:29:58.270Z,41.73
2019-04-05T18:32:31.360Z,41.74
2019-04-05T18:35:03.647Z,41.88
2019-04-05T18:37:35.808Z,42.01
2019-04-05T18:40:08.501Z,42.07
2019-04-05T18:42:41.258Z,41.88
2019-04-05T18:45:13.603Z,41.84
2019-04-05T18:47:45.799Z,41.62
2019-04-05T18:50:17.914Z,41.88
2019-04-05T18:52:50.360Z,41.80
2019-04-05T18:55:22.362Z,42.17
2019-04-05T18:57:54.471Z,42.25
2019-04-05T19:00:26.508Z,42.37
2019-04-05T19:02:58.503Z,42.21
2019-04-05T19:05:30.492Z,42.38
2019-04-05T19:08:02.449Z,41.92
2019-04-05T19:10:37.174Z,42.50
2019-04-05T19:13:08.295Z,42.52
2019-04-05T19:15:40.615Z,42.65
2019-04-05T19:18:12.610Z,42.69
2019-04-05T19:20:44.904Z,43.06
2019-04-05T19:23:16.956Z,43.16
2019-04-05T19:25:49.078Z,42.89
2019-04-05T19:28:21.196Z,43.12
2019-04-05T19:48:49.426Z,42.19
2019-04-05T19:51:21.548Z,42.14
2019-04-05T19:54:01.030Z,41.37
2019-04-05T19:56:27.330Z,41.19
2019-04-05T19:59:00.046Z,41.06
2019-04-05T20:01:34.731Z,41.08
2019-04-05T20:04:09.251Z,40.98
2019-04-05T20:06:43.885Z,41.37
2019-04-05T20:09:16.252Z,41.50
2019-04-05T20:11:48.357Z,41.79
2019-04-05T20:14:20.992Z,41.84
2019-04-05T20:16:53.105Z,42.12
2019-04-05T20:19:26.191Z,42.19
2019-04-05T20:21:58.545Z,42.34
2019-04-05T20:24:31.092Z,42.46
2019-04-05T20:27:03.157Z,42.65
2019-04-05T20:29:35.333Z,42.79
2019-04-05T20:32:07.385Z,42.87
2019-04-05T20:34:39.516Z,43.04
2019-04-05T20:37:11.504Z,42.98
2019-04-05T20:39:43.638Z,43.28
2019-04-05T20:42:15.769Z,43.42
2019-04-05T20:44:47.788Z,43.68
2019-04-05T20:47:19.867Z,43.73
2019-04-05T20:49:51.856Z,43.90
2019-04-05T20:52:23.863Z,43.92
2019-04-05T20:54:56.087Z,43.76
2019-04-05T20:57:28.217Z,43.77
2019-04-05T21:00:00.468Z,44.08
2019-04-05T21:02:32.543Z,44.23
2019-04-05T21:05:05.216Z,44.66
2019-04-05T21:07:37.227Z,44.81
2019-04-05T21:10:10.228Z,45.08
2019-04-05T21:12:42.252Z,45.36
2019-04-05T21:15:14.396Z,45.50
2019-04-05T21:17:46.367Z,45.62
2019-04-05T21:20:19.087Z,45.75
2019-04-05T21:22:51.217Z,45.61
2019-04-05T21:25:23.395Z,45.89
2019-04-05T21:27:55.448Z,45.82
2019-04-05T21:30:27.491Z,46.09
2019-04-05T21:33:00.004Z,45.97
2019-04-05T21:35:32.066Z,45.97
2019-04-05T21:38:04.151Z,46.29
2019-04-05T21:40:36.282Z,46.04
2019-04-05T21:43:08.328Z,46.19
2019-04-05T21:45:40.733Z,46.35
2019-04-05T21:48:13.815Z,46.46
2019-04-05T21:50:46.530Z,46.59
2019-04-05T21:53:18.529Z,46.78
2019-04-05T21:55:50.816Z,46.94
2019-04-05T21:58:22.870Z,46.95
2019-04-05T22:01:03.735Z,47.17
2019-04-05T22:03:35.797Z,47.34
2019-04-05T22:06:07.870Z,47.51
2019-04-05T22:08:40.116Z,47.66
2019-04-05T22:11:13.250Z,47.88
2019-04-05T22:13:45.402Z,47.94
2019-04-05T22:16:19.086Z,48.06
2019-04-05T22:18:51.149Z,48.37
2019-04-05T22:21:23.173Z,48.40
2019-04-05T22:23:55.324Z,48.58
2019-04-05T22:26:27.320Z,48.55
2019-04-05T22:28:59.450Z,48.63
2019-04-05T22:31:31.539Z,48.80
2019-04-05T22:34:03.505Z,49.20
2019-04-05T22:36:37.315Z,49.49
2019-04-05T22:39:11.111Z,49.27
2019-04-05T22:41:43.056Z,49.46
2019-04-05T22:44:15.536Z,49.52
2019-04-05T22:46:47.581Z,49.56
2019-04-05T22:49:21.194Z,49.61
2019-04-05T22:51:53.314Z,49.63
2019-04-05T22:54:25.285Z,49.70
2019-04-05T22:56:57.519Z,49.64
2019-04-05T22:59:29.492Z,49.77
2019-04-05T23:02:01.451Z,49.88
2019-04-05T23:04:33.415Z,50.00
2019-04-05T23:07:05.398Z,50.28
2019-04-05T23:09:37.397Z,50.31
2019-04-05T23:12:09.331Z,50.58
2019-04-05T23:14:41.384Z,50.64
2019-04-05T23:17:13.524Z,50.74
2019-04-05T23:19:47.715Z,50.90
2019-04-05T23:22:19.376Z,51.12
2019-04-05T23:24:51.338Z,51.25
2019-04-05T23:27:23.451Z,51.31
2019-04-05T23:29:55.426Z,51.32
2019-04-05T23:32:27.380Z,51.52
2019-04-05T23:34:59.470Z,51.48
2019-04-05T23:37:32.738Z,51.72
2019-04-05T23:40:05.589Z,51.85
2019-04-05T23:42:37.677Z,52.03
2019-04-05T23:45:10.373Z,52.00
2019-04-05T23:47:42.313Z,52.23
2019-04-05T23:50:14.576Z,52.21
2019-04-05T23:52:46.563Z,52.16
2019-04-05T23:55:18.815Z,52.27
2019-04-05T23:57:51.550Z,52.51
